Time;durP1;ratioP1;P1;durP2;ratioP2;P2;SDS_P1;SDS_P2;PMS_P1;PMS_P2;Temp;Humidity;BMP_temperature;BMP_pressure;BME280_temperature;BME280_humidity;BME280_pressure;Samples;Min_cycle;Max_cycle;Signal;HPM_P1;HPM_P2
2021/03/03 00:01:45;;;;;;;33.55;23.55;;;5.70;84.70;;;;;;5007716;28;20049;-58
2021/03/03 00:04:11;;;;;;;35.00;24.33;;;5.60;84.50;;;;;;5003378;28;20038;-59
2021/03/03 00:06:36;;;;;;;37.40;24.52;;;5.60;84.80;;;;;;5013128;28;20041;-61
2021/03/03 00:09:02;;;;;;;35.97;24.38;;;5.60;84.60;;;;;;5016183;28;20129;-59
2021/03/03 00:11:28;;;;;;;34.45;23.63;;;5.60;84.40;;;;;;5010234;28;20037;-59
2021/03/03 00:13:53;;;;;;;37.00;24.25;;;5.50;84.70;;;;;;5013984;28;20046;-58
2021/03/03 00:16:19;;;;;;;34.47;23.60;;;5.40;84.70;;;;;;5012608;28;20037;-57
2021/03/03 00:18:45;;;;;;;34.72;24.60;;;5.40;84.90;;;;;;5006517;28;20495;-57
2021/03/03 00:21:10;;;;;;;36.78;23.67;;;5.40;84.80;;;;;;5004536;28;20641;-59
2021/03/03 00:23:36;;;;;;;36.75;23.95;;;5.40;85.00;;;;;;5008440;28;20041;-60
2021/03/03 00:26:01;;;;;;;40.22;25.83;;;5.40;84.90;;;;;;5005314;28;20517;-58
2021/03/03 00:28:27;;;;;;;39.53;25.40;;;5.40;84.60;;;;;;5009878;28;20030;-58
2021/03/03 00:30:53;;;;;;;39.88;26.45;;;5.30;84.40;;;;;;5029816;28;20045;-59
2021/03/03 00:33:18;;;;;;;39.05;25.73;;;5.30;84.20;;;;;;5014422;28;20041;-55
2021/03/03 00:35:44;;;;;;;41.58;27.08;;;5.20;84.20;;;;;;5035440;28;20424;-58
2021/03/03 00:38:10;;;;;;;38.88;26.73;;;5.20;84.60;;;;;;5007402;28;20077;-57
2021/03/03 00:40:35;;;;;;;38.15;25.83;;;5.10;84.90;;;;;;5004122;28;20052;-58
2021/03/03 00:43:01;;;;;;;33.42;22.67;;;5.10;84.80;;;;;;5004402;28;20030;-57
2021/03/03 00:45:26;;;;;;;37.42;25.60;;;5.10;84.70;;;;;;5003747;28;20686;-59
2021/03/03 00:47:52;;;;;;;36.10;22.90;;;5.00;84.60;;;;;;5007427;28;20061;-59
2021/03/03 00:50:18;;;;;;;37.78;25.92;;;5.00;84.30;;;;;;5004146;28;20030;-60
2021/03/03 00:52:43;;;;;;;36.85;24.80;;;4.90;84.90;;;;;;5004173;28;20048;-55
2021/03/03 00:55:10;;;;;;;41.80;28.45;;;4.80;84.70;;;;;;5007069;28;20034;-55
2021/03/03 00:57:36;;;;;;;41.95;27.15;;;4.70;85.90;;;;;;5008247;28;20034;-60
2021/03/03 01:00:03;;;;;;;42.90;26.95;;;4.60;86.10;;;;;;5005825;28;20134;-59
2021/03/03 01:02:28;;;;;;;40.72;26.02;;;4.60;86.40;;;;;;5021248;28;20072;-58
2021/03/03 01:04:54;;;;;;;39.20;25.88;;;4.60;86.30;;;;;;5002995;28;20070;-57
2021/03/03 01:07:19;;;;;;;40.00;26.52;;;4.60;86.10;;;;;;5005705;28;20041;-59
2021/03/03 01:09:45;;;;;;;39.50;26.17;;;4.50;86.20;;;;;;5009525;28;20057;-59
2021/03/03 01:12:11;;;;;;;35.90;24.60;;;4.50;87.70;;;;;;5005292;28;20030;-57
2021/03/03 01:14:37;;;;;;;32.78;22.13;;;4.60;87.20;;;;;;5004327;28;20173;-60
2021/03/03 01:17:02;;;;;;;33.10;21.92;;;4.50;86.60;;;;;;5004178;28;20113;-59
2021/03/03 01:19:28;;;;;;;32.58;20.15;;;4.50;86.10;;;;;;5028451;28;20038;-60
2021/03/03 01:21:53;;;;;;;31.42;21.40;;;4.50;85.90;;;;;;5003405;28;20511;-60
2021/03/03 01:24:19;;;;;;;33.78;20.40;;;4.60;85.30;;;;;;5005826;28;20030;-60
2021/03/03 01:26:44;;;;;;;30.33;20.33;;;4.60;85.40;;;;;;5004224;28;20088;-58
2021/03/03 01:29:10;;;;;;;30.65;19.85;;;4.60;85.20;;;;;;5005142;28;20034;-59
2021/03/03 01:31:36;;;;;;;29.70;20.60;;;4.60;85.50;;;;;;5010585;28;20038;-58
2021/03/03 01:34:02;;;;;;;28.10;19.05;;;4.60;85.00;;;;;;5008724;28;20038;-58
2021/03/03 01:36:28;;;;;;;30.63;20.60;;;4.50;84.70;;;;;;5019987;28;20173;-57
2021/03/03 01:38:54;;;;;;;31.63;21.35;;;4.50;84.90;;;;;;5004103;28;20517;-57
2021/03/03 01:41:20;;;;;;;36.75;22.85;;;4.50;85.10;;;;;;5000300;28;20037;-58
2021/03/03 01:43:45;;;;;;;35.80;22.10;;;4.50;84.80;;;;;;5006025;28;20025;-60
2021/03/03 01:46:11;;;;;;;36.20;22.77;;;4.50;84.70;;;;;;5007793;28;20026;-60
2021/03/03 01:48:37;;;;;;;37.70;23.10;;;4.50;84.90;;;;;;5007798;28;20088;-54
2021/03/03 01:51:03;;;;;;;38.42;24.23;;;4.50;84.90;;;;;;5004541;28;20040;-57
2021/03/03 01:53:29;;;;;;;32.08;22.63;;;4.50;85.20;;;;;;5002466;28;20026;-58
2021/03/03 01:55:55;;;;;;;35.00;22.77;;;4.40;85.30;;;;;;5004589;28;20046;-57
2021/03/03 01:58:21;;;;;;;37.30;24.40;;;4.40;85.00;;;;;;5003044;28;20424;-58
2021/03/03 02:00:47;;;;;;;36.17;22.00;;;4.40;84.90;;;;;;5003413;28;20026;-60
2021/03/03 02:03:13;;;;;;;35.92;22.05;;;4.40;84.70;;;;;;5001699;28;20046;-57
2021/03/03 02:05:38;;;;;;;35.88;23.58;;;4.30;84.40;;;;;;5007501;28;20129;-57
2021/03/03 02:08:12;;;;;;;33.55;21.13;;;4.20;84.10;;;;;;5011960;28;20038;-58
2021/03/03 02:10:44;;;;;;;30.93;20.93;;;4.20;84.10;;;;;;5013086;28;20030;-60
2021/03/03 02:13:17;;;;;;;31.33;20.23;;;4.20;83.90;;;;;;4999798;28;20133;-60
2021/03/03 02:15:46;;;;;;;30.75;21.15;;;4.10;84.00;;;;;;4996803;28;20417;-60
2021/03/03 02:18:12;;;;;;;32.45;22.40;;;4.10;84.10;;;;;;5013300;28;20034;-59
2021/03/03 02:20:47;;;;;;;29.15;20.33;;;4.10;84.10;;;;;;4998955;28;20030;-61
2021/03/03 02:23:34;;;;;;;33.95;21.90;;;4.10;84.20;;;;;;4994427;28;20076;-57
2021/03/03 02:26:02;;;;;;;30.13;19.35;;;4.10;84.00;;;;;;5005054;28;20129;-59
2021/03/03 02:28:28;;;;;;;25.48;18.73;;;4.00;84.10;;;;;;4993048;28;20559;-60
2021/03/03 02:30:54;;;;;;;23.80;18.80;;;4.00;84.20;;;;;;5008673;28;20168;-58
2021/03/03 02:33:22;;;;;;;26.27;19.40;;;4.00;83.90;;;;;;5011784;28;20109;-59
2021/03/03 02:35:49;;;;;;;28.38;18.55;;;4.00;84.10;;;;;;5011100;28;20577;-60
2021/03/03 02:38:15;;;;;;;25.60;18.75;;;4.00;84.00;;;;;;5011463;28;20397;-57
2021/03/03 02:40:42;;;;;;;24.73;17.88;;;4.00;84.10;;;;;;5006290;28;20042;-61
2021/03/03 02:43:16;;;;;;;26.83;18.85;;;4.00;84.00;;;;;;4992839;28;20072;-59
2021/03/03 02:45:42;;;;;;;26.33;18.83;;;3.90;84.00;;;;;;5009351;28;20034;-58
2021/03/03 02:48:08;;;;;;;28.40;19.48;;;3.90;84.10;;;;;;5005257;28;20034;-56
2021/03/03 02:50:35;;;;;;;25.80;17.85;;;3.90;84.20;;;;;;4992778;28;20166;-56
2021/03/03 02:53:00;;;;;;;25.40;18.38;;;4.00;84.40;;;;;;5009007;28;20466;-59
2021/03/03 02:55:27;;;;;;;24.38;17.50;;;4.00;84.30;;;;;;5012337;28;20038;-58
2021/03/03 02:57:54;;;;;;;23.98;18.05;;;3.90;83.90;;;;;;5013510;28;20030;-54
2021/03/03 03:00:23;;;;;;;23.63;18.00;;;3.90;84.10;;;;;;4997127;28;20065;-60
2021/03/03 03:02:51;;;;;;;24.27;18.13;;;3.90;83.80;;;;;;5002573;28;20041;-60
2021/03/03 03:05:19;;;;;;;24.73;18.58;;;3.80;84.50;;;;;;5007930;28;20069;-60
2021/03/03 03:07:49;;;;;;;25.90;18.67;;;3.70;84.60;;;;;;4992470;28;20045;-59
2021/03/03 03:10:17;;;;;;;27.90;19.55;;;3.70;84.60;;;;;;5000303;28;20042;-60
2021/03/03 03:12:46;;;;;;;28.10;20.23;;;3.70;84.70;;;;;;5011782;28;20241;-60
2021/03/03 03:15:16;;;;;;;29.52;20.80;;;3.70;84.50;;;;;;5011148;28;20124;-58
2021/03/03 03:17:45;;;;;;;29.00;20.48;;;3.60;85.10;;;;;;5011546;28;20048;-59
2021/03/03 03:20:14;;;;;;;29.23;19.58;;;3.60;84.50;;;;;;5007806;28;20037;-58
2021/03/03 03:22:40;;;;;;;30.58;21.10;;;3.60;85.00;;;;;;4998557;28;20085;-58
2021/03/03 03:25:07;;;;;;;35.72;23.25;;;3.50;85.10;;;;;;5001087;28;20026;-57
2021/03/03 03:27:34;;;;;;;37.78;23.90;;;3.50;85.40;;;;;;4990578;28;20129;-58
2021/03/03 03:30:00;;;;;;;34.25;23.80;;;3.40;86.90;;;;;;5011083;28;20046;-58
2021/03/03 03:32:26;;;;;;;35.25;24.65;;;3.40;86.80;;;;;;5011207;28;20385;-59
2021/03/03 03:34:54;;;;;;;35.25;24.30;;;3.40;86.80;;;;;;5011119;28;20041;-58
2021/03/03 03:37:22;;;;;;;36.22;22.52;;;3.40;87.60;;;;;;4992888;28;20038;-59
2021/03/03 03:39:48;;;;;;;28.83;20.52;;;3.40;87.80;;;;;;5001882;28;20077;-58
2021/03/03 03:42:16;;;;;;;23.85;18.25;;;3.40;86.80;;;;;;5011516;28;20042;-59
2021/03/03 03:44:43;;;;;;;25.00;18.15;;;3.40;86.50;;;;;;5006872;28;20129;-56
2021/03/03 03:47:14;;;;;;;25.10;18.60;;;3.40;86.20;;;;;;4991419;28;20394;-57
2021/03/03 03:49:40;;;;;;;40.38;26.15;;;3.40;85.90;;;;;;4992225;28;20049;-56
2021/03/03 03:52:05;;;;;;;43.10;27.13;;;3.40;85.90;;;;;;4992972;28;20117;-56
2021/03/03 03:54:31;;;;;;;31.50;21.10;;;3.40;86.90;;;;;;5002032;28;20029;-59
2021/03/03 03:56:57;;;;;;;31.48;21.50;;;3.40;86.30;;;;;;5011316;28;20441;-59
2021/03/03 03:59:22;;;;;;;41.08;24.63;;;3.40;85.70;;;;;;4992469;28;20057;-59
2021/03/03 04:01:48;;;;;;;45.20;25.35;;;3.30;86.60;;;;;;5000040;28;20034;-59
2021/03/03 04:04:13;;;;;;;44.50;26.85;;;3.20;87.60;;;;;;5011593;28;20077;-60
2021/03/03 04:06:39;;;;;;;47.53;30.02;;;3.20;88.80;;;;;;5011913;28;20100;-58
2021/03/03 04:09:04;;;;;;;63.38;33.95;;;3.20;89.70;;;;;;5014667;28;20045;-59
2021/03/03 04:11:30;;;;;;;63.35;33.47;;;3.20;90.60;;;;;;5015533;28;20049;-57
2021/03/03 04:13:56;;;;;;;60.25;32.08;;;3.20;90.80;;;;;;5014245;28;20030;-57
2021/03/03 04:16:21;;;;;;;55.70;31.40;;;3.20;91.10;;;;;;5006073;28;20112;-57
2021/03/03 04:18:47;;;;;;;63.13;33.25;;;3.20;90.80;;;;;;4994421;28;20371;-60
2021/03/03 04:21:12;;;;;;;62.05;33.22;;;3.20;90.70;;;;;;5013382;28;20033;-60
2021/03/03 04:23:38;;;;;;;66.78;34.72;;;3.00;91.60;;;;;;5004922;28;20038;-59
2021/03/03 04:26:03;;;;;;;59.35;32.38;;;2.80;91.90;;;;;;5014067;28;20066;-60
2021/03/03 04:28:29;;;;;;;59.97;33.42;;;2.80;92.00;;;;;;5014069;28;20563;-61
2021/03/03 04:30:55;;;;;;;64.75;35.85;;;2.80;92.10;;;;;;5006720;28;20454;-57
2021/03/03 04:33:20;;;;;;;60.72;32.90;;;2.80;92.10;;;;;;5012942;28;20086;-58
2021/03/03 04:35:46;;;;;;;62.33;32.60;;;2.90;92.10;;;;;;5013337;28;20053;-55
2021/03/03 04:38:11;;;;;;;66.07;32.42;;;3.00;91.80;;;;;;5007396;28;20119;-57
2021/03/03 04:40:37;;;;;;;62.60;32.60;;;2.90;91.80;;;;;;4994704;28;20042;-58
2021/03/03 04:43:03;;;;;;;64.70;33.95;;;2.90;91.90;;;;;;5011721;28;20044;-59
2021/03/03 04:45:28;;;;;;;63.00;34.22;;;3.00;91.70;;;;;;5006876;28;20038;-57
2021/03/03 04:47:54;;;;;;;62.20;32.60;;;3.00;91.90;;;;;;4994751;28;20034;-52
2021/03/03 04:50:20;;;;;;;63.10;32.65;;;3.10;91.60;;;;;;5009877;28;20038;-58
2021/03/03 04:52:45;;;;;;;89.68;48.72;;;3.20;91.50;;;;;;5007622;28;20038;-55
2021/03/03 04:55:11;;;;;;;73.47;43.20;;;3.30;91.20;;;;;;4994512;28;20073;-58
2021/03/03 04:57:37;;;;;;;59.05;32.88;;;3.30;91.00;;;;;;5009506;28;20037;-55
2021/03/03 05:00:04;;;;;;;63.88;33.10;;;3.40;90.60;;;;;;5008096;28;20437;-55
2021/03/03 05:02:30;;;;;;;58.75;32.45;;;3.40;90.70;;;;;;4993870;28;20049;-60
2021/03/03 05:04:55;;;;;;;60.35;32.65;;;3.40;90.50;;;;;;5010621;28;20050;-57
2021/03/03 05:07:21;;;;;;;62.88;33.97;;;3.40;90.70;;;;;;5013808;28;20080;-60
2021/03/03 05:09:46;;;;;;;60.78;33.42;;;3.30;90.80;;;;;;5017307;28;20428;-59
2021/03/03 05:12:12;;;;;;;60.83;33.08;;;3.30;90.90;;;;;;4999902;28;20040;-59
2021/03/03 05:14:38;;;;;;;59.45;33.90;;;3.40;90.70;;;;;;5002214;28;20402;-57
2021/03/03 05:17:03;;;;;;;57.15;33.22;;;3.40;90.70;;;;;;5008903;28;20061;-58
2021/03/03 05:19:29;;;;;;;57.90;33.20;;;3.40;90.70;;;;;;4998508;28;20038;-58
2021/03/03 05:21:54;;;;;;;65.95;33.60;;;3.40;90.70;;;;;;5006383;28;20580;-59
2021/03/03 05:24:20;;;;;;;50.20;30.67;;;3.40;90.70;;;;;;4998435;28;20545;-60
2021/03/03 05:26:46;;;;;;;61.35;32.75;;;3.40;90.80;;;;;;5006767;28;20100;-58
2021/03/03 05:29:11;;;;;;;59.90;32.67;;;3.30;90.70;;;;;;5012686;28;20038;-59
2021/03/03 05:31:37;;;;;;;62.92;34.83;;;3.20;90.60;;;;;;5013682;28;20081;-59
2021/03/03 05:34:03;;;;;;;57.13;32.20;;;3.10;91.00;;;;;;5004265;28;20041;-58
2021/03/03 05:36:28;;;;;;;56.25;32.35;;;3.10;91.00;;;;;;5028230;28;20030;-59
2021/03/03 05:38:54;;;;;;;59.97;32.08;;;3.00;91.20;;;;;;5013380;28;20041;-59
2021/03/03 05:41:25;;;;;;;52.10;30.65;;;3.00;91.20;;;;;;4999144;28;20046;-56
2021/03/03 05:43:51;;;;;;;63.35;32.10;;;3.10;91.20;;;;;;4998002;28;20038;-56
2021/03/03 05:46:17;;;;;;;56.13;31.40;;;3.00;91.40;;;;;;5012729;28;20099;-58
2021/03/03 05:49:00;;;;;;;51.85;28.42;;;3.00;91.70;;;;;;4998722;28;20046;-60
2021/03/03 05:51:27;;;;;;;58.28;32.28;;;2.90;91.60;;;;;;4999849;28;20026;-54
2021/03/03 05:53:53;;;;;;;53.25;30.40;;;2.90;91.50;;;;;;5012857;28;20087;-58
2021/03/03 05:56:22;;;;;;;56.95;32.72;;;2.90;91.80;;;;;;5012152;28;20096;-59
2021/03/03 05:58:48;;;;;;;59.40;32.22;;;2.90;91.90;;;;;;5005630;28;20030;-57
2021/03/03 06:01:14;;;;;;;57.78;31.58;;;2.90;91.80;;;;;;4992568;28;20129;-61
2021/03/03 06:03:41;;;;;;;56.90;31.70;;;3.00;91.60;;;;;;4992930;28;20106;-59
2021/03/03 06:06:06;;;;;;;60.33;35.35;;;3.00;91.70;;;;;;5005337;28;20030;-57
2021/03/03 06:08:32;;;;;;;60.65;34.80;;;3.10;91.70;;;;;;5012598;28;20504;-59
2021/03/03 06:11:03;;;;;;;64.55;35.65;;;3.10;91.50;;;;;;4995197;28;20034;-58
2021/03/03 06:13:29;;;;;;;61.28;35.33;;;3.20;91.40;;;;;;4999496;28;20425;-59
2021/03/03 06:15:55;;;;;;;62.22;32.65;;;3.30;91.30;;;;;;5012459;28;20044;-59
2021/03/03 06:18:22;;;;;;;55.08;32.95;;;3.30;90.70;;;;;;4994306;28;20042;-60
2021/03/03 06:20:50;;;;;;;60.10;33.15;;;3.30;90.90;;;;;;4998033;28;20045;-59
2021/03/03 06:23:18;;;;;;;61.17;33.17;;;3.40;90.90;;;;;;5010475;28;20128;-58
2021/03/03 06:25:46;;;;;;;59.55;32.33;;;3.30;90.70;;;;;;5009315;28;20038;-58
2021/03/03 06:28:29;;;;;;;52.35;30.83;;;3.40;90.70;;;;;;5003777;28;20630;-59
2021/03/03 06:30:55;;;;;;;56.30;29.13;;;3.40;90.70;;;;;;4992622;28;20065;-60
2021/03/03 06:33:25;;;;;;;49.47;27.55;;;3.50;90.30;;;;;;5012222;28;20105;-58
2021/03/03 06:35:50;;;;;;;52.00;29.92;;;3.50;90.00;;;;;;5011237;28;20030;-57
2021/03/03 06:38:24;;;;;;;51.38;30.75;;;3.60;90.00;;;;;;5011657;28;20478;-58
2021/03/03 06:40:58;;;;;;;67.40;36.97;;;3.60;90.00;;;;;;4991433;28;20038;-59
2021/03/03 06:43:29;;;;;;;65.65;35.75;;;3.60;90.30;;;;;;5004423;28;20041;-61
2021/03/03 06:45:56;;;;;;;64.90;35.28;;;3.70;90.30;;;;;;5010727;28;20485;-55
2021/03/03 06:48:38;;;;;;;64.00;35.20;;;3.70;90.40;;;;;;4994391;28;20105;-60
2021/03/03 06:51:29;;;;;;;67.95;36.47;;;3.60;90.70;;;;;;5006340;28;20096;-58
2021/03/03 06:53:58;;;;;;;58.90;34.55;;;3.60;90.60;;;;;;5016997;28;20405;-57
2021/03/03 06:56:40;;;;;;;53.90;32.85;;;3.70;90.40;;;;;;5011934;28;20065;-56
2021/03/03 06:59:18;;;;;;;59.10;34.38;;;3.70;90.60;;;;;;4993983;28;20037;-58
2021/03/03 07:01:47;;;;;;;56.92;34.50;;;3.70;90.70;;;;;;5004878;28;20045;-59
2021/03/03 07:04:18;;;;;;;60.75;35.72;;;3.80;90.50;;;;;;5009587;28;20128;-56
2021/03/03 07:06:44;;;;;;;62.15;34.03;;;3.90;90.50;;;;;;5010795;28;20038;-59
2021/03/03 07:09:11;;;;;;;61.30;34.97;;;3.80;90.90;;;;;;5010255;28;20117;-54
2021/03/03 07:11:42;;;;;;;55.92;33.88;;;3.80;91.00;;;;;;5009148;28;20038;-58
2021/03/03 07:14:18;;;;;;;56.88;33.25;;;4.00;90.70;;;;;;4992927;28;20031;-59
2021/03/03 07:17:06;;;;;;;52.35;33.20;;;4.00;90.70;;;;;;5007942;28;20034;-59
2021/03/03 07:19:33;;;;;;;57.33;34.10;;;4.20;90.40;;;;;;5005758;28;20034;-57
2021/03/03 07:21:58;;;;;;;50.45;31.70;;;4.00;90.90;;;;;;4992191;28;20039;-57
2021/03/03 07:24:26;;;;;;;59.50;33.80;;;3.80;91.60;;;;;;5008368;28;20044;-59
2021/03/03 07:26:52;;;;;;;55.92;34.35;;;3.90;91.40;;;;;;5002332;28;20502;-60
2021/03/03 07:29:18;;;;;;;60.17;34.20;;;3.90;91.40;;;;;;5011475;28;20482;-59
2021/03/03 07:31:44;;;;;;;56.95;34.13;;;3.90;91.60;;;;;;5010743;28;20041;-59
2021/03/03 07:34:10;;;;;;;54.05;32.25;;;4.00;91.50;;;;;;5010414;28;20030;-57
2021/03/03 07:36:37;;;;;;;54.28;32.75;;;4.00;91.50;;;;;;5009944;28;20026;-60
2021/03/03 07:39:08;;;;;;;54.92;34.30;;;4.10;91.50;;;;;;4994087;28;20375;-59
2021/03/03 07:41:43;;;;;;;60.58;34.65;;;4.10;91.60;;;;;;5002490;28;20041;-60
2021/03/03 07:44:17;;;;;;;57.63;34.28;;;4.10;91.60;;;;;;5014675;28;20036;-55
2021/03/03 07:46:46;;;;;;;54.08;32.88;;;4.10;91.50;;;;;;4995734;28;20085;-59
2021/03/03 07:49:13;;;;;;;59.30;35.95;;;4.10;91.50;;;;;;5004925;28;20069;-59
2021/03/03 07:51:41;;;;;;;55.97;34.03;;;4.20;91.60;;;;;;5014761;28;20080;-57
2021/03/03 07:54:11;;;;;;;57.47;34.38;;;4.10;91.90;;;;;;4995135;28;20053;-59
2021/03/03 07:56:38;;;;;;;62.97;37.10;;;4.20;91.70;;;;;;5006180;28;20030;-59
2021/03/03 07:59:06;;;;;;;56.08;33.65;;;4.20;91.80;;;;;;5014425;28;20061;-58
2021/03/03 08:01:32;;;;;;;54.30;34.45;;;4.20;92.00;;;;;;5015007;28;20042;-58
2021/03/03 08:03:58;;;;;;;54.53;31.20;;;4.30;91.80;;;;;;5003543;28;20042;-59
2021/03/03 08:06:37;;;;;;;57.97;33.90;;;4.50;91.80;;;;;;5008996;28;20132;-57
2021/03/03 08:09:06;;;;;;;54.70;32.95;;;4.50;91.30;;;;;;5002712;28;20042;-59
2021/03/03 08:11:37;;;;;;;45.38;29.55;;;4.70;90.90;;;;;;4995211;28;20501;-59
2021/03/03 08:14:34;;;;;;;47.67;31.23;;;5.00;90.70;;;;;;5005905;28;20042;-58
2021/03/03 08:17:04;;;;;;;47.45;28.13;;;5.10;90.50;;;;;;5014599;28;20497;-55
2021/03/03 08:19:49;;;;;;;48.03;28.25;;;5.30;90.10;;;;;;5014567;28;20205;-58
2021/03/03 08:22:14;;;;;;;44.37;28.33;;;5.20;90.80;;;;;;5014864;28;20033;-59
2021/03/03 08:24:40;;;;;;;46.33;28.65;;;5.20;90.60;;;;;;5005910;28;20687;-57
2021/03/03 08:27:30;;;;;;;39.30;26.63;;;5.30;90.60;;;;;;5003526;28;20117;-58
2021/03/03 08:30:14;;;;;;;41.53;26.85;;;5.50;90.20;;;;;;5011213;28;20060;-58
2021/03/03 08:32:40;;;;;;;43.38;26.10;;;5.60;89.90;;;;;;5014559;28;20029;-59
2021/03/03 08:35:06;;;;;;;38.70;25.02;;;5.60;90.00;;;;;;5010435;28;20410;-57
2021/03/03 08:37:34;;;;;;;38.13;25.15;;;5.80;89.70;;;;;;5014559;28;20037;-56
2021/03/03 08:40:22;;;;;;;42.80;26.10;;;5.70;90.00;;;;;;5014615;28;20038;-60
2021/03/03 08:42:47;;;;;;;37.58;25.00;;;5.80;90.30;;;;;;5013419;28;20026;-60
2021/03/03 08:45:14;;;;;;;38.92;25.42;;;5.90;90.10;;;;;;4997560;28;20057;-60
2021/03/03 08:47:56;;;;;;;36.58;24.50;;;6.20;89.60;;;;;;4995319;28;20097;-58
2021/03/03 08:50:27;;;;;;;38.40;25.38;;;6.30;88.60;;;;;;5005642;28;20559;-60
2021/03/03 08:53:26;;;;;;;33.22;22.95;;;6.40;88.70;;;;;;5002361;28;20034;-60
2021/03/03 08:55:53;;;;;;;38.15;23.50;;;6.50;88.00;;;;;;5001598;28;20054;-59
2021/03/03 08:58:33;;;;;;;33.60;22.88;;;6.60;88.60;;;;;;5012396;28;20033;-60
2021/03/03 09:00:59;;;;;;;33.33;22.77;;;6.60;88.20;;;;;;5015127;28;20422;-57
2021/03/03 09:03:26;;;;;;;31.38;22.98;;;6.70;87.40;;;;;;5004931;28;20050;-60
2021/03/03 09:05:54;;;;;;;34.45;23.27;;;6.80;86.40;;;;;;5005443;28;20040;-58
2021/03/03 09:08:20;;;;;;;29.63;22.15;;;6.90;86.60;;;;;;4998252;28;20125;-56
2021/03/03 09:10:46;;;;;;;29.15;20.55;;;6.90;86.80;;;;;;5009577;28;20041;-57
2021/03/03 09:13:22;;;;;;;32.67;21.70;;;6.90;86.00;;;;;;5014011;28;20048;-60
2021/03/03 09:16:12;;;;;;;32.15;22.88;;;6.90;86.80;;;;;;5017097;28;20049;-61
2021/03/03 09:18:38;;;;;;;28.45;19.23;;;7.10;86.70;;;;;;5019385;28;20030;-60
2021/03/03 09:21:05;;;;;;;26.45;19.15;;;7.20;85.20;;;;;;5006701;28;20090;-57
2021/03/03 09:23:30;;;;;;;25.10;18.10;;;7.40;84.60;;;;;;4996481;28;20125;-61
2021/03/03 09:25:56;;;;;;;24.67;18.75;;;7.40;83.70;;;;;;5010536;28;20033;-60
2021/03/03 09:28:41;;;;;;;25.95;18.73;;;7.40;83.00;;;;;;5008304;28;20621;-57
2021/03/03 09:31:06;;;;;;;26.23;19.30;;;7.50;83.70;;;;;;5009018;28;20034;-58
2021/03/03 09:33:32;;;;;;;25.15;17.95;;;7.60;83.00;;;;;;5011827;28;20397;-60
2021/03/03 09:35:59;;;;;;;26.45;18.88;;;7.40;82.50;;;;;;5013605;28;20482;-58
2021/03/03 09:38:24;;;;;;;23.42;18.40;;;7.40;83.70;;;;;;5003336;28;20039;-60
2021/03/03 09:40:50;;;;;;;24.15;18.40;;;7.60;83.40;;;;;;4994618;28;20076;-59
2021/03/03 09:43:16;;;;;;;23.80;17.35;;;7.70;83.60;;;;;;4999988;28;20030;-59
2021/03/03 09:45:42;;;;;;;25.10;17.48;;;7.80;83.50;;;;;;5008254;28;20057;-60
2021/03/03 09:48:08;;;;;;;26.60;17.92;;;7.80;83.00;;;;;;5010336;28;20030;-60
2021/03/03 09:50:34;;;;;;;22.85;17.50;;;8.00;82.80;;;;;;5035127;28;20049;-60
2021/03/03 09:53:01;;;;;;;23.83;16.75;;;8.00;83.10;;;;;;5005139;28;20150;-61
2021/03/03 09:55:38;;;;;;;27.30;18.38;;;8.30;82.30;;;;;;5008186;28;20164;-58
2021/03/03 09:58:04;;;;;;;31.67;17.85;;;8.20;82.60;;;;;;5003882;28;20092;-59
2021/03/03 10:00:34;;;;;;;24.85;17.25;;;8.40;82.00;;;;;;5006896;28;20120;-60
2021/03/03 10:03:02;;;;;;;22.70;17.27;;;8.50;81.20;;;;;;5004639;28;20050;-60
2021/03/03 10:05:31;;;;;;;24.75;17.42;;;8.50;81.20;;;;;;4999125;28;20034;-61
2021/03/03 10:08:01;;;;;;;24.00;17.17;;;8.50;81.20;;;;;;5004993;28;20054;-59
2021/03/03 10:10:32;;;;;;;22.60;16.80;;;8.60;80.90;;;;;;4999772;28;20048;-61
2021/03/03 10:12:59;;;;;;;23.08;17.10;;;8.60;81.10;;;;;;5004015;28;20125;-61
2021/03/03 10:15:45;;;;;;;23.13;17.52;;;8.70;80.90;;;;;;5007432;28;20042;-61
2021/03/03 10:18:11;;;;;;;25.95;17.38;;;8.90;79.70;;;;;;5003809;28;20112;-58
2021/03/03 10:20:41;;;;;;;21.73;17.48;;;9.10;79.30;;;;;;5002093;28;20182;-60
2021/03/03 10:23:13;;;;;;;23.42;16.38;;;9.00;79.70;;;;;;5008171;28;20129;-59
2021/03/03 10:25:42;;;;;;;29.05;17.67;;;9.20;79.40;;;;;;5003516;28;20117;-62
2021/03/03 10:28:14;;;;;;;23.55;16.35;;;9.20;78.40;;;;;;5001093;28;20034;-61
2021/03/03 10:30:51;;;;;;;28.02;17.80;;;9.30;77.80;;;;;;5012464;28;20585;-61
2021/03/03 10:33:26;;;;;;;22.20;16.73;;;9.30;78.70;;;;;;5011287;28;20405;-62
2021/03/03 10:35:53;;;;;;;25.02;16.88;;;9.50;78.30;;;;;;5006948;28;20038;-63
2021/03/03 10:38:22;;;;;;;21.73;16.95;;;9.60;76.70;;;;;;5011344;28;20107;-61
2021/03/03 10:40:49;;;;;;;21.15;17.13;;;9.80;77.00;;;;;;5011061;28;20452;-61
2021/03/03 10:43:19;;;;;;;22.52;16.60;;;9.90;77.00;;;;;;5006525;28;20030;-59
2021/03/03 10:45:48;;;;;;;22.05;16.98;;;9.90;75.90;;;;;;5003184;28;20030;-61
2021/03/03 10:48:30;;;;;;;21.33;16.65;;;10.00;76.50;;;;;;5038154;28;20042;-61
2021/03/03 10:50:59;;;;;;;25.67;17.15;;;10.10;74.70;;;;;;5011782;28;20045;-60
2021/03/03 10:53:53;;;;;;;31.90;17.35;;;10.20;74.80;;;;;;5011399;28;20129;-61
2021/03/03 10:56:27;;;;;;;24.15;16.48;;;10.30;77.10;;;;;;5011996;28;20065;-61
2021/03/03 10:58:55;;;;;;;24.23;16.98;;;10.60;75.00;;;;;;5010250;28;20094;-61
2021/03/03 11:01:22;;;;;;;23.92;17.20;;;10.70;74.60;;;;;;5007811;28;20110;-62
2021/03/03 11:03:51;;;;;;;26.70;16.90;;;10.60;74.20;;;;;;5011464;28;20053;-61
2021/03/03 11:06:17;;;;;;;24.23;17.08;;;10.60;74.20;;;;;;5012078;28;20533;-63
2021/03/03 11:08:43;;;;;;;24.55;17.40;;;10.70;74.30;;;;;;5011383;28;20036;-64
2021/03/03 11:11:08;;;;;;;23.77;17.40;;;10.70;73.90;;;;;;5010678;28;20456;-61
2021/03/03 11:13:36;;;;;;;23.88;16.77;;;10.80;74.00;;;;;;5012144;28;20038;-63
2021/03/03 11:16:03;;;;;;;25.55;17.02;;;11.00;73.40;;;;;;5009675;28;20072;-61
2021/03/03 11:18:29;;;;;;;24.50;17.35;;;11.00;72.30;;;;;;5015823;28;20042;-63
2021/03/03 11:20:55;;;;;;;23.92;17.88;;;10.80;73.00;;;;;;5007368;28;20046;-63
2021/03/03 11:23:21;;;;;;;23.83;17.60;;;10.90;72.70;;;;;;5014479;28;20037;-62
2021/03/03 11:25:46;;;;;;;24.92;17.80;;;11.00;72.50;;;;;;5012753;28;20037;-62
2021/03/03 11:28:12;;;;;;;24.38;17.00;;;11.10;72.30;;;;;;5011710;28;20069;-63
2021/03/03 11:30:37;;;;;;;21.45;16.48;;;11.20;72.40;;;;;;5036168;28;20077;-63
2021/03/03 11:33:03;;;;;;;25.42;17.48;;;11.20;72.60;;;;;;5020897;28;20033;-61
2021/03/03 11:35:29;;;;;;;25.20;17.95;;;11.30;72.70;;;;;;5012958;28;20121;-63
2021/03/03 11:37:55;;;;;;;22.92;17.20;;;11.30;72.60;;;;;;5012972;28;20034;-63
2021/03/03 11:40:20;;;;;;;24.20;18.13;;;11.40;72.10;;;;;;5013762;28;20033;-62
2021/03/03 11:42:46;;;;;;;24.73;17.75;;;11.50;71.80;;;;;;5009995;28;20029;-61
2021/03/03 11:45:12;;;;;;;29.45;17.98;;;11.40;71.40;;;;;;5003863;28;20103;-62
2021/03/03 11:47:38;;;;;;;23.23;16.13;;;11.50;70.10;;;;;;5007775;28;20037;-62
2021/03/03 11:50:06;;;;;;;27.83;17.65;;;11.50;69.30;;;;;;5009462;28;20437;-62
2021/03/03 11:52:31;;;;;;;26.02;16.55;;;11.60;69.90;;;;;;5008769;28;20034;-63
2021/03/03 11:54:57;;;;;;;26.65;17.20;;;11.70;70.40;;;;;;5013150;28;20594;-62
2021/03/03 11:57:25;;;;;;;25.33;18.30;;;11.80;70.20;;;;;;5014600;28;20077;-62
2021/03/03 11:59:51;;;;;;;24.77;17.63;;;12.00;70.00;;;;;;5015378;28;20034;-62
2021/03/03 12:02:19;;;;;;;25.25;17.52;;;12.00;69.90;;;;;;5010849;28;20066;-63
2021/03/03 12:04:45;;;;;;;26.42;18.58;;;12.00;69.80;;;;;;5013069;28;20416;-63
2021/03/03 12:07:10;;;;;;;23.20;16.83;;;12.00;70.40;;;;;;5015422;28;20038;-62
2021/03/03 12:09:36;;;;;;;27.48;17.73;;;12.00;70.80;;;;;;5006502;28;20046;-61
2021/03/03 12:12:02;;;;;;;26.30;17.45;;;11.80;71.60;;;;;;5006090;28;20030;-62
2021/03/03 12:14:28;;;;;;;23.33;16.75;;;12.00;71.20;;;;;;5009490;28;20038;-64
2021/03/03 12:16:54;;;;;;;24.92;16.00;;;12.10;70.20;;;;;;5011795;28;20045;-62
2021/03/03 12:19:20;;;;;;;23.13;16.60;;;12.00;70.30;;;;;;5008650;28;20067;-62
2021/03/03 12:21:46;;;;;;;24.98;17.60;;;12.00;69.70;;;;;;5011479;28;20034;-62
2021/03/03 12:24:12;;;;;;;27.00;17.98;;;12.10;69.60;;;;;;5011653;28;20037;-62
2021/03/03 12:26:37;;;;;;;26.77;18.00;;;12.30;69.70;;;;;;5006836;28;20485;-62
2021/03/03 12:29:04;;;;;;;27.20;18.45;;;12.30;70.70;;;;;;5010596;28;20053;-62
2021/03/03 12:31:30;;;;;;;27.58;18.45;;;12.30;72.00;;;;;;5015861;28;20115;-62
2021/03/03 12:33:56;;;;;;;26.67;18.13;;;12.40;72.20;;;;;;5013949;28;20034;-62
2021/03/03 12:36:24;;;;;;;27.75;18.30;;;12.40;72.20;;;;;;5001009;28;20049;-62
2021/03/03 12:38:49;;;;;;;26.63;17.63;;;12.50;70.90;;;;;;5006655;28;20397;-63
2021/03/03 12:41:15;;;;;;;30.25;18.65;;;12.70;70.30;;;;;;5011427;28;20034;-62